Time;durP1;ratioP1;P1;durP2;ratioP2;P2;SDS_P1;SDS_P2;PMS_P1;PMS_P2;Temp;Humidity;BMP_temperature;BMP_pressure;BME280_temperature;BME280_humidity;BME280_pressure;Samples;Min_cycle;Max_cycle;Signal;HPM_P1;HPM_P2
2021/03/06 00:00:32;;;;;;;16.40;9.37;;;;;;;;;;5000025;28;20528;-34
2021/03/06 00:03:19;;;;;;;18.13;9.60;;;;;;;;;;5000184;28;20549;-34
2021/03/06 00:06:07;;;;;;;19.27;9.33;;;;;;;;;;4999979;28;20751;-37
2021/03/06 00:08:54;;;;;;;15.93;9.07;;;;;;;;;;5000331;28;20445;-33
2021/03/06 00:11:43;;;;;;;17.53;9.20;;;;;;;;;;5000318;28;20509;-38
2021/03/06 00:14:29;;;;;;;13.13;8.83;;;;;;;;;;5000213;28;20458;-37
2021/03/06 00:17:19;;;;;;;16.43;9.37;;;;;;;;;;5000125;28;20480;-34
2021/03/06 00:20:06;;;;;;;15.33;9.20;;;;;;;;;;5000134;28;20846;-37
2021/03/06 00:22:53;;;;;;;14.00;9.33;;;;;;;;;;5000308;28;20481;-35
2021/03/06 00:25:39;;;;;;;14.43;9.67;;;;;;;;;;4999935;28;20453;-38
2021/03/06 00:28:25;;;;;;;12.67;8.67;;;;;;;;;;4999984;28;20446;-36
2021/03/06 00:31:14;;;;;;;14.57;9.13;;;;;;;;;;5000086;28;20515;-37
2021/03/06 00:34:01;;;;;;;13.93;9.27;;;;;;;;;;4999464;28;20446;-35
2021/03/06 00:36:50;;;;;;;16.03;9.83;;;;;;;;;;4999870;28;20446;-34
2021/03/06 00:39:36;;;;;;;14.27;9.67;;;;;;;;;;4999517;28;20449;-35
2021/03/06 00:42:22;;;;;;;13.50;9.30;;;;;;;;;;4999830;28;20484;-32
2021/03/06 00:45:08;;;;;;;15.97;9.17;;;;;;;;;;4999837;28;21008;-38
2021/03/06 00:47:55;;;;;;;11.53;9.13;;;;;;;;;;4999610;28;20453;-33
2021/03/06 00:50:45;;;;;;;14.43;9.43;;;;;;;;;;4999572;28;20577;-33
2021/03/06 00:53:31;;;;;;;11.87;8.27;;;;;;;;;;4999246;28;20446;-34
2021/03/06 00:56:17;;;;;;;13.67;8.17;;;;;;;;;;4999225;28;20513;-37
2021/03/06 00:59:02;;;;;;;14.53;9.43;;;;;;;;;;4998835;28;20649;-35
2021/03/06 01:01:48;;;;;;;11.30;8.87;;;;;;;;;;4999247;28;20640;-35
2021/03/06 01:04:35;;;;;;;14.87;8.87;;;;;;;;;;4998014;28;20449;-36
2021/03/06 01:07:22;;;;;;;13.47;8.30;;;;;;;;;;4999274;28;20497;-34
2021/03/06 01:10:10;;;;;;;12.30;8.43;;;;;;;;;;4999238;28;20880;-36
2021/03/06 01:12:57;;;;;;;11.53;8.20;;;;;;;;;;4998849;28;20564;-34
2021/03/06 01:15:43;;;;;;;15.63;7.80;;;;;;;;;;4998676;28;20460;-34
2021/03/06 01:18:29;;;;;;;12.47;8.27;;;;;;;;;;4998618;28;20450;-37
2021/03/06 01:21:15;;;;;;;14.27;8.27;;;;;;;;;;4998789;28;20481;-36
2021/03/06 01:24:02;;;;;;;12.77;8.53;;;;;;;;;;4998745;28;20527;-37
2021/03/06 01:26:51;;;;;;;12.17;8.67;;;;;;;;;;4998372;28;20859;-33
2021/03/06 01:29:36;;;;;;;14.33;8.30;;;;;;;;;;4998491;28;20953;-34
2021/03/06 01:32:23;;;;;;;13.57;8.90;;;;;;;;;;4998722;28;20489;-34
2021/03/06 01:35:10;;;;;;;12.27;9.13;;;;;;;;;;4998398;28;20594;-33
2021/03/06 01:37:57;;;;;;;13.50;9.10;;;;;;;;;;4998261;28;20446;-34
2021/03/06 01:40:43;;;;;;;15.77;9.43;;;;;;;;;;4998355;28;20941;-39
2021/03/06 01:43:29;;;;;;;13.17;8.50;;;;;;;;;;4998344;28;20457;-36
2021/03/06 01:46:15;;;;;;;12.50;8.40;;;;;;;;;;4998604;28;20593;-34
2021/03/06 01:49:02;;;;;;;13.43;9.40;;;;;;;;;;4998550;28;20445;-36
2021/03/06 01:51:51;;;;;;;13.87;9.03;;;;;;;;;;4998078;28;20446;-34
2021/03/06 01:54:37;;;;;;;12.87;9.00;;;;;;;;;;4998205;28;20461;-36
2021/03/06 01:57:24;;;;;;;13.77;9.03;;;;;;;;;;4998147;28;20464;-37
2021/03/06 02:00:11;;;;;;;12.73;9.10;;;;;;;;;;4997678;28;20602;-39
2021/03/06 02:02:58;;;;;;;17.47;8.50;;;;;;;;;;4997924;28;20477;-35
2021/03/06 02:05:44;;;;;;;11.70;8.97;;;;;;;;;;4997438;28;20513;-35
2021/03/06 02:08:31;;;;;;;15.37;9.40;;;;;;;;;;4997979;28;20457;-34
2021/03/06 02:11:23;;;;;;;13.47;9.30;;;;;;;;;;4998031;28;20477;-37
2021/03/06 02:14:17;;;;;;;15.60;9.10;;;;;;;;;;4997859;28;20477;-37
2021/03/06 02:17:05;;;;;;;15.47;8.60;;;;;;;;;;4998052;28;20857;-36
2021/03/06 02:20:18;;;;;;;12.00;8.60;;;;;;;;;;4997642;28;20475;-35
2021/03/06 02:23:12;;;;;;;16.93;9.47;;;;;;;;;;4997569;28;20947;-32
2021/03/06 02:26:14;;;;;;;11.43;8.77;;;;;;;;;;4996881;28;20449;-34
2021/03/06 02:29:07;;;;;;;13.73;8.50;;;;;;;;;;4997285;28;20899;-37
2021/03/06 02:31:55;;;;;;;10.63;8.80;;;;;;;;;;4997532;28;20935;-36
2021/03/06 02:34:44;;;;;;;13.10;9.40;;;;;;;;;;4997741;28;20446;-37
2021/03/06 02:37:31;;;;;;;12.73;8.80;;;;;;;;;;4997852;28;20508;-33
2021/03/06 02:40:18;;;;;;;11.60;8.77;;;;;;;;;;4997460;28;20548;-34
2021/03/06 02:43:05;;;;;;;12.97;8.77;;;;;;;;;;4997460;28;20580;-33
2021/03/06 02:45:51;;;;;;;16.07;10.13;;;;;;;;;;4997654;28;20449;-37
2021/03/06 02:48:38;;;;;;;10.80;8.93;;;;;;;;;;4997627;28;20457;-34
2021/03/06 02:51:25;;;;;;;15.13;9.03;;;;;;;;;;4997627;28;20525;-36
2021/03/06 02:54:11;;;;;;;13.83;9.53;;;;;;;;;;4997804;28;20540;-34
2021/03/06 02:56:57;;;;;;;14.27;8.60;;;;;;;;;;4997267;28;20541;-34
2021/03/06 02:59:58;;;;;;;11.07;8.70;;;;;;;;;;4997296;28;20541;-37
2021/03/06 03:02:49;;;;;;;13.87;9.37;;;;;;;;;;4996943;28;20914;-33
2021/03/06 03:05:40;;;;;;;12.17;8.67;;;;;;;;;;4997013;28;20521;-34
2021/03/06 03:08:28;;;;;;;13.63;8.73;;;;;;;;;;4996807;28;20449;-34
2021/03/06 03:11:15;;;;;;;12.63;8.40;;;;;;;;;;4997111;28;20718;-34
2021/03/06 03:14:01;;;;;;;14.93;9.43;;;;;;;;;;4996950;28;20474;-35
2021/03/06 03:16:50;;;;;;;11.17;9.10;;;;;;;;;;4997358;28;20923;-33
2021/03/06 03:19:43;;;;;;;17.73;9.50;;;;;;;;;;4997405;28;20454;-36
2021/03/06 03:22:33;;;;;;;13.90;9.13;;;;;;;;;;4996694;28;20481;-34
2021/03/06 03:25:20;;;;;;;14.63;9.50;;;;;;;;;;4997155;28;20504;-35
2021/03/06 03:28:08;;;;;;;12.43;9.73;;;;;;;;;;4999777;28;20454;-35
2021/03/06 03:30:56;;;;;;;15.10;9.73;;;;;;;;;;5001006;28;20453;-36
2021/03/06 03:33:42;;;;;;;14.27;9.47;;;;;;;;;;5000943;28;20445;-34
2021/03/06 03:36:28;;;;;;;13.03;9.00;;;;;;;;;;5001005;28;20446;-32
2021/03/06 03:39:15;;;;;;;15.30;9.63;;;;;;;;;;5000475;28;20448;-34
2021/03/06 03:42:02;;;;;;;12.27;8.97;;;;;;;;;;5000702;28;20999;-33
2021/03/06 03:44:49;;;;;;;14.53;9.37;;;;;;;;;;5000573;28;20445;-35
2021/03/06 03:47:36;;;;;;;12.40;8.87;;;;;;;;;;5000394;28;20555;-35
2021/03/06 03:50:26;;;;;;;14.17;8.83;;;;;;;;;;5000999;28;20461;-35
2021/03/06 03:53:12;;;;;;;11.53;8.57;;;;;;;;;;5000286;28;20461;-34
2021/03/06 03:56:00;;;;;;;13.07;8.27;;;;;;;;;;5000475;28;20534;-36
2021/03/06 03:58:46;;;;;;;14.80;9.07;;;;;;;;;;5000391;28;20448;-34
2021/03/06 04:01:38;;;;;;;12.87;9.20;;;;;;;;;;5000631;28;20912;-33
2021/03/06 04:04:29;;;;;;;14.83;9.20;;;;;;;;;;5000153;28;20450;-33
2021/03/06 04:07:15;;;;;;;17.93;11.77;;;;;;;;;;5000125;28;20612;-37
2021/03/06 04:10:02;;;;;;;17.73;10.90;;;;;;;;;;5000376;28;20466;-37
2021/03/06 04:12:49;;;;;;;14.93;9.57;;;;;;;;;;4999999;28;20485;-37
2021/03/06 04:15:35;;;;;;;13.73;9.10;;;;;;;;;;5000108;28;20517;-34
2021/03/06 04:18:21;;;;;;;13.70;9.20;;;;;;;;;;5000189;28;20522;-33
2021/03/06 04:21:07;;;;;;;16.10;9.07;;;;;;;;;;4999759;28;20446;-34
2021/03/06 04:23:52;;;;;;;13.00;8.57;;;;;;;;;;5000332;28;20453;-38
2021/03/06 04:26:38;;;;;;;12.67;8.87;;;;;;;;;;4999767;28;20527;-35
2021/03/06 04:29:25;;;;;;;14.83;10.60;;;;;;;;;;4999992;28;20457;-37
2021/03/06 04:32:11;;;;;;;12.47;9.20;;;;;;;;;;4999798;28;20722;-36
2021/03/06 04:34:57;;;;;;;15.93;8.60;;;;;;;;;;4999688;28;20868;-39
2021/03/06 04:37:43;;;;;;;14.10;9.03;;;;;;;;;;4999185;28;20517;-32
2021/03/06 04:40:28;;;;;;;17.70;9.23;;;;;;;;;;4999572;28;20457;-36
2021/03/06 04:43:15;;;;;;;13.03;9.10;;;;;;;;;;5000041;28;20568;-33
2021/03/06 04:46:02;;;;;;;16.37;9.43;;;;;;;;;;5000043;28;20446;-33
2021/03/06 04:48:48;;;;;;;15.20;8.70;;;;;;;;;;4999188;28;20506;-36
2021/03/06 04:51:34;;;;;;;11.43;8.13;;;;;;;;;;4999413;28;20445;-33
2021/03/06 04:54:20;;;;;;;14.63;9.03;;;;;;;;;;4999584;28;20446;-32
2021/03/06 04:57:26;;;;;;;15.23;9.57;;;;;;;;;;4999093;28;20450;-33
2021/03/06 05:00:12;;;;;;;12.57;8.30;;;;;;;;;;4999305;28;20547;-35
2021/03/06 05:03:00;;;;;;;13.17;8.63;;;;;;;;;;4999381;28;20500;-37
2021/03/06 05:05:46;;;;;;;10.97;7.80;;;;;;;;;;4999474;28;20505;-38
2021/03/06 05:08:32;;;;;;;14.27;9.00;;;;;;;;;;4999168;28;20788;-33
2021/03/06 05:11:17;;;;;;;16.20;9.30;;;;;;;;;;4999254;28;20457;-36
2021/03/06 05:14:03;;;;;;;13.43;9.07;;;;;;;;;;4999143;28;20489;-34
2021/03/06 05:16:49;;;;;;;13.67;9.27;;;;;;;;;;4999329;28;20883;-35
2021/03/06 05:19:38;;;;;;;16.13;9.30;;;;;;;;;;4998922;28;20744;-33
2021/03/06 05:22:25;;;;;;;12.43;8.70;;;;;;;;;;4999396;28;20551;-33
2021/03/06 05:25:11;;;;;;;13.00;9.00;;;;;;;;;;4998746;28;20450;-38
2021/03/06 05:27:57;;;;;;;11.80;8.70;;;;;;;;;;4999046;28;20445;-36
2021/03/06 05:30:43;;;;;;;15.97;9.07;;;;;;;;;;4998951;28;20466;-34
2021/03/06 05:33:29;;;;;;;13.77;10.10;;;;;;;;;;4998387;28;20529;-33
2021/03/06 05:36:16;;;;;;;14.67;10.03;;;;;;;;;;4998553;28;20625;-33
2021/03/06 05:39:02;;;;;;;11.07;8.93;;;;;;;;;;4999032;28;20725;-36
2021/03/06 05:41:48;;;;;;;19.60;9.77;;;;;;;;;;4998322;28;20478;-33
2021/03/06 05:44:37;;;;;;;11.17;9.07;;;;;;;;;;4998751;28;20533;-35
2021/03/06 05:47:23;;;;;;;14.93;9.10;;;;;;;;;;4998589;28;20449;-36
2021/03/06 05:50:10;;;;;;;14.80;8.80;;;;;;;;;;4998244;28;20537;-39
2021/03/06 05:52:59;;;;;;;15.87;9.67;;;;;;;;;;4997978;28;20505;-37
2021/03/06 05:55:52;;;;;;;11.80;8.67;;;;;;;;;;4998335;28;21007;-37
2021/03/06 05:58:38;;;;;;;13.07;8.80;;;;;;;;;;4998471;28;20864;-39
2021/03/06 06:01:25;;;;;;;16.47;9.73;;;;;;;;;;4998293;28;20972;-40
2021/03/06 06:04:11;;;;;;;12.57;8.50;;;;;;;;;;4998483;28;20449;-37
2021/03/06 06:07:01;;;;;;;11.93;8.50;;;;;;;;;;4998049;28;20475;-35
2021/03/06 06:09:48;;;;;;;15.23;9.03;;;;;;;;;;4998244;28;20703;-34
2021/03/06 06:12:33;;;;;;;17.03;8.93;;;;;;;;;;4997974;28;20544;-40
2021/03/06 06:15:20;;;;;;;17.53;9.70;;;;;;;;;;4998107;28;20493;-38
2021/03/06 06:18:06;;;;;;;14.63;9.80;;;;;;;;;;4997931;28;20517;-37
2021/03/06 06:20:54;;;;;;;15.70;9.67;;;;;;;;;;4997786;28;20517;-38
2021/03/06 06:24:03;;;;;;;14.23;9.20;;;;;;;;;;4998040;28;20450;-39
2021/03/06 06:26:54;;;;;;;13.83;9.10;;;;;;;;;;4997706;28;20723;-39
2021/03/06 06:29:40;;;;;;;18.53;9.37;;;;;;;;;;4998064;28;20470;-40
2021/03/06 06:32:27;;;;;;;18.30;10.10;;;;;;;;;;4997937;28;20501;-37
2021/03/06 06:35:14;;;;;;;15.47;9.87;;;;;;;;;;4997705;28;20553;-39
2021/03/06 06:38:01;;;;;;;11.50;9.07;;;;;;;;;;4997594;28;20533;-40
2021/03/06 06:40:54;;;;;;;18.07;11.27;;;;;;;;;;4997880;28;20473;-39
2021/03/06 06:43:41;;;;;;;13.27;10.00;;;;;;;;;;4997644;28;20453;-37
2021/03/06 06:46:29;;;;;;;16.47;9.63;;;;;;;;;;4997919;28;20883;-43
2021/03/06 06:49:16;;;;;;;11.77;9.13;;;;;;;;;;5016275;28;20472;-36
2021/03/06 06:52:05;;;;;;;14.37;9.13;;;;;;;;;;5017147;28;20476;-41
2021/03/06 06:54:54;;;;;;;15.00;9.07;;;;;;;;;;5017278;28;20453;-41
2021/03/06 06:57:47;;;;;;;14.97;8.70;;;;;;;;;;5016734;28;20732;-37
2021/03/06 07:00:35;;;;;;;16.33;9.20;;;;;;;;;;5016775;28;20547;-41
2021/03/06 07:03:22;;;;;;;13.47;8.73;;;;;;;;;;5016411;28;20832;-41
2021/03/06 07:06:14;;;;;;;11.47;8.73;;;;;;;;;;5016792;28;20487;-37
2021/03/06 07:09:06;;;;;;;11.80;9.10;;;;;;;;;;5016410;28;20213;-36
2021/03/06 07:11:55;;;;;;;14.47;9.07;;;;;;;;;;5016594;28;20210;-38
2021/03/06 07:14:41;;;;;;;14.37;10.73;;;;;;;;;;5016944;28;20361;-39
2021/03/06 07:17:37;;;;;;;17.53;9.93;;;;;;;;;;5016990;28;20605;-36
2021/03/06 07:20:28;;;;;;;16.87;10.30;;;;;;;;;;5016728;28;20360;-37
2021/03/06 07:23:15;;;;;;;17.07;10.07;;;;;;;;;;5016806;28;20505;-41
2021/03/06 07:26:01;;;;;;;14.17;9.53;;;;;;;;;;5016538;28;20241;-35
2021/03/06 07:28:50;;;;;;;15.43;10.57;;;;;;;;;;5016416;28;20199;-35
2021/03/06 07:31:37;;;;;;;12.73;10.03;;;;;;;;;;5016634;28;20824;-39
2021/03/06 07:34:26;;;;;;;18.93;10.33;;;;;;;;;;5016184;28;20206;-39
2021/03/06 07:37:12;;;;;;;12.73;10.50;;;;;;;;;;5016649;28;20316;-36
2021/03/06 07:40:01;;;;;;;13.33;10.03;;;;;;;;;;5015749;28;20220;-38
2021/03/06 07:42:48;;;;;;;14.07;9.93;;;;;;;;;;5016004;28;20208;-39
2021/03/06 07:45:37;;;;;;;15.90;10.30;;;;;;;;;;5016686;28;20596;-38
2021/03/06 07:48:26;;;;;;;17.13;9.67;;;;;;;;;;5015739;28;20522;-37
2021/03/06 07:51:13;;;;;;;10.43;9.10;;;;;;;;;;5015961;28;20345;-36
2021/03/06 07:54:01;;;;;;;10.77;9.13;;;;;;;;;;5015901;28;20221;-39
2021/03/06 07:56:51;;;;;;;15.57;10.33;;;;;;;;;;5014950;28;20657;-39
2021/03/06 07:59:56;;;;;;;11.53;8.43;;;;;;;;;;5015906;28;20206;-37
2021/03/06 08:02:44;;;;;;;13.77;9.20;;;;;;;;;;5016364;28;20698;-38
2021/03/06 08:05:47;;;;;;;12.83;9.53;;;;;;;;;;5016061;28;20210;-37
2021/03/06 08:09:03;;;;;;;10.10;7.90;;;;;;;;;;5016120;28;20489;-39
2021/03/06 08:11:50;;;;;;;10.77;7.77;;;;;;;;;;4955613;29;20199;-36
2021/03/06 08:14:40;;;;;;;9.43;8.00;;;;;;;;;;4981149;28;20310;-35
2021/03/06 08:17:36;;;;;;;10.20;7.93;;;;;;;;;;4960845;29;20211;-38
2021/03/06 08:20:23;;;;;;;8.73;7.80;;;;;;;;;;4960851;29;20208;-41
2021/03/06 08:23:19;;;;;;;14.90;9.67;;;;;;;;;;4961102;29;20215;-40
2021/03/06 08:26:30;;;;;;;13.70;9.03;;;;;;;;;;4960869;29;20203;-41
2021/03/06 08:29:34;;;;;;;11.97;9.07;;;;;;;;;;4956292;28;20363;-41
2021/03/06 08:32:31;;;;;;;14.67;9.10;;;;;;;;;;4960362;29;20295;-40
2021/03/06 08:35:21;;;;;;;16.10;9.83;;;;;;;;;;4960431;29;20562;-37
2021/03/06 08:38:22;;;;;;;13.03;9.23;;;;;;;;;;4960428;29;20265;-40
2021/03/06 08:41:09;;;;;;;15.63;9.17;;;;;;;;;;4960705;29;20206;-37
2021/03/06 08:43:55;;;;;;;10.87;8.70;;;;;;;;;;4960074;29;20259;-36
2021/03/06 08:46:45;;;;;;;14.53;9.70;;;;;;;;;;4959497;29;20715;-38
2021/03/06 08:49:32;;;;;;;14.83;10.17;;;;;;;;;;4960276;29;20220;-39
2021/03/06 08:52:18;;;;;;;13.93;9.07;;;;;;;;;;4960161;29;20529;-36
2021/03/06 08:55:05;;;;;;;12.83;9.73;;;;;;;;;;4959969;29;20211;-41
2021/03/06 08:57:52;;;;;;;11.90;8.23;;;;;;;;;;4959910;29;20216;-39
2021/03/06 09:00:40;;;;;;;13.67;8.67;;;;;;;;;;4959153;29;20485;-39
2021/03/06 09:03:28;;;;;;;12.83;8.30;;;;;;;;;;4959461;29;20595;-37
2021/03/06 09:06:14;;;;;;;11.63;7.53;;;;;;;;;;4959541;29;20211;-41
2021/03/06 09:09:06;;;;;;;10.83;6.67;;;;;;;;;;4959986;29;20685;-38
2021/03/06 09:11:56;;;;;;;10.03;6.77;;;;;;;;;;4960494;28;20662;-38
2021/03/06 09:14:42;;;;;;;9.60;5.47;;;;;;;;;;4998481;28;20202;-39
2021/03/06 09:17:31;;;;;;;8.93;5.87;;;;;;;;;;4998209;28;20203;-38
2021/03/06 09:20:22;;;;;;;10.57;6.17;;;;;;;;;;5009876;28;20608;-34
2021/03/06 09:23:08;;;;;;;10.73;5.37;;;;;;;;;;4998207;28;20616;-36
2021/03/06 09:25:54;;;;;;;7.07;4.37;;;;;;;;;;4996982;28;20194;-38
2021/03/06 09:28:43;;;;;;;8.53;4.57;;;;;;;;;;4997449;28;20210;-40
2021/03/06 09:31:31;;;;;;;9.27;4.63;;;;;;;;;;4997493;28;20203;-38
2021/03/06 09:34:29;;;;;;;5.50;2.60;;;;;;;;;;4997216;28;20747;-38
2021/03/06 09:37:17;;;;;;;4.93;3.07;;;;;;;;;;4997044;28;20355;-37
2021/03/06 09:40:16;;;;;;;5.93;3.50;;;;;;;;;;4997547;28;20357;-39
2021/03/06 09:43:03;;;;;;;5.30;2.40;;;;;;;;;;4997860;28;20306;-38
2021/03/06 09:45:50;;;;;;;2.37;2.00;;;;;;;;;;4997952;28;20314;-40
2021/03/06 09:48:46;;;;;;;3.43;1.50;;;;;;;;;;4997526;28;20194;-39
2021/03/06 09:51:40;;;;;;;3.60;3.10;;;;;;;;;;4997156;28;20595;-37
2021/03/06 09:54:35;;;;;;;4.67;2.60;;;;;;;;;;4997451;28;20253;-36
2021/03/06 09:57:23;;;;;;;3.90;1.47;;;;;;;;;;4996614;28;20206;-38
2021/03/06 10:00:20;;;;;;;3.80;1.80;;;;;;;;;;4997873;28;20199;-40
2021/03/06 10:03:06;;;;;;;3.57;1.60;;;;;;;;;;4996691;28;20198;-36
2021/03/06 10:05:55;;;;;;;3.47;1.80;;;;;;;;;;4996971;28;20217;-39
2021/03/06 10:08:49;;;;;;;5.20;3.00;;;;;;;;;;4997255;28;20298;-40
2021/03/06 10:11:40;;;;;;;3.77;1.97;;;;;;;;;;4996940;28;20210;-36
2021/03/06 10:14:27;;;;;;;5.03;2.67;;;;;;;;;;4997047;28;20225;-35
2021/03/06 10:17:13;;;;;;;5.83;2.43;;;;;;;;;;4996925;28;20298;-42
2021/03/06 10:19:59;;;;;;;5.23;2.80;;;;;;;;;;4997196;28;20350;-41
2021/03/06 10:22:46;;;;;;;3.50;2.00;;;;;;;;;;4996722;28;20204;-38
2021/03/06 10:25:32;;;;;;;3.67;1.97;;;;;;;;;;4996176;28;20916;-39
2021/03/06 10:28:19;;;;;;;6.87;2.13;;;;;;;;;;5005876;28;20466;-39
2021/03/06 10:31:05;;;;;;;3.40;1.53;;;;;;;;;;5017184;28;20201;-38
2021/03/06 10:33:50;;;;;;;4.00;1.90;;;;;;;;;;5016445;28;20226;-40
2021/03/06 10:36:36;;;;;;;1.90;1.60;;;;;;;;;;5015987;28;20640;-40
2021/03/06 10:39:23;;;;;;;4.03;1.90;;;;;;;;;;5016810;28;20563;-36
2021/03/06 10:42:08;;;;;;;3.33;1.77;;;;;;;;;;5017124;28;20340;-37
2021/03/06 10:44:56;;;;;;;5.10;2.20;;;;;;;;;;5016757;28;20197;-38
2021/03/06 10:47:46;;;;;;;4.17;2.03;;;;;;;;;;5016524;28;20198;-40
2021/03/06 10:50:34;;;;;;;1.90;1.70;;;;;;;;;;5016293;28;20206;-39
2021/03/06 10:53:22;;;;;;;2.07;1.83;;;;;;;;;;5015815;28;20552;-38
2021/03/06 10:56:19;;;;;;;3.30;1.50;;;;;;;;;;5016848;28;20319;-38
2021/03/06 10:59:06;;;;;;;3.47;1.87;;;;;;;;;;5015717;28;20250;-38
2021/03/06 11:01:59;;;;;;;3.60;2.33;;;;;;;;;;5016212;28;20604;-40
2021/03/06 11:04:47;;;;;;;3.07;1.90;;;;;;;;;;5016238;28;20220;-37
2021/03/06 11:07:33;;;;;;;4.00;1.80;;;;;;;;;;5015987;28;20201;-36
2021/03/06 11:10:20;;;;;;;3.90;1.60;;;;;;;;;;5016262;28;20198;-36
2021/03/06 11:13:06;;;;;;;4.40;2.00;;;;;;;;;;5015365;28;20671;-38
2021/03/06 11:15:54;;;;;;;4.43;1.30;;;;;;;;;;5015500;28;20619;-40
2021/03/06 11:18:42;;;;;;;2.70;1.47;;;;;;;;;;5016180;28;20485;-36
2021/03/06 11:21:28;;;;;;;5.70;1.60;;;;;;;;;;5016526;28;20344;-38
2021/03/06 11:24:18;;;;;;;2.27;1.80;;;;;;;;;;5016446;28;20197;-40
2021/03/06 11:27:04;;;;;;;1.40;1.30;;;;;;;;;;5016261;28;20290;-35
2021/03/06 11:29:52;;;;;;;2.30;1.47;;;;;;;;;;5016188;28;20205;-38
2021/03/06 11:32:38;;;;;;;2.53;1.60;;;;;;;;;;5016050;28;20281;-38
2021/03/06 11:35:25;;;;;;;1.73;1.60;;;;;;;;;;5015769;28;20206;-36
2021/03/06 11:38:12;;;;;;;4.90;1.83;;;;;;;;;;5015824;28;20206;-36
2021/03/06 11:40:58;;;;;;;4.13;1.70;;;;;;;;;;5015856;28;20202;-40
2021/03/06 11:43:47;;;;;;;3.80;2.20;;;;;;;;;;5014330;28;20624;-36
2021/03/06 11:46:32;;;;;;;5.67;2.17;;;;;;;;;;5014675;28;20214;-36
2021/03/06 11:49:19;;;;;;;1.93;1.80;;;;;;;;;;5018919;28;20249;-35
2021/03/06 11:52:06;;;;;;;4.33;2.17;;;;;;;;;;5000634;28;20249;-40
2021/03/06 11:54:52;;;;;;;3.80;2.27;;;;;;;;;;5000505;28;20198;-36
2021/03/06 11:57:45;;;;;;;2.67;2.40;;;;;;;;;;5000030;28;20307;-38
2021/03/06 12:00:31;;;;;;;5.37;2.50;;;;;;;;;;5000488;28;20611;-39
2021/03/06 12:03:18;;;;;;;6.50;2.40;;;;;;;;;;4999419;28;20198;-39
2021/03/06 12:06:05;;;;;;;2.30;2.10;;;;;;;;;;4998951;28;20517;-36
2021/03/06 12:08:52;;;;;;;3.63;2.40;;;;;;;;;;4999927;28;20198;-38
2021/03/06 12:11:38;;;;;;;3.00;2.70;;;;;;;;;;4999762;28;20202;-37
2021/03/06 12:14:24;;;;;;;3.17;2.43;;;;;;;;;;4960854;29;20612;-40
2021/03/06 12:17:12;;;;;;;5.83;2.60;;;;;;;;;;4960824;29;20233;-37
2021/03/06 12:19:58;;;;;;;3.77;2.60;;;;;;;;;;4972793;28;20482;-38
2021/03/06 12:22:51;;;;;;;4.07;2.60;;;;;;;;;;4980596;28;20582;-39
2021/03/06 12:25:38;;;;;;;3.97;2.70;;;;;;;;;;4969193;28;20211;-40
2021/03/06 12:28:26;;;;;;;8.00;2.90;;;;;;;;;;4960082;29;20606;-41
2021/03/06 12:31:14;;;;;;;3.50;2.93;;;;;;;;;;4960830;29;20482;-37
2021/03/06 12:34:00;;;;;;;3.03;2.60;;;;;;;;;;4961090;29;20516;-36
2021/03/06 12:36:48;;;;;;;6.27;2.90;;;;;;;;;;4974282;28;20215;-38
2021/03/06 12:39:36;;;;;;;4.03;2.33;;;;;;;;;;4980392;28;20205;-39
2021/03/06 12:42:23;;;;;;;4.63;2.70;;;;;;;;;;4980089;28;20200;-38
2021/03/06 12:45:10;;;;;;;4.63;2.57;;;;;;;;;;4979497;28;20602;-34
2021/03/06 12:47:56;;;;;;;5.83;2.50;;;;;;;;;;4980196;28;20262;-38
2021/03/06 12:50:47;;;;;;;4.67;2.10;;;;;;;;;;4979981;28;20199;-36
2021/03/06 12:53:34;;;;;;;4.30;2.70;;;;;;;;;;4979466;28;20306;-39
2021/03/06 12:56:21;;;;;;;3.40;2.30;;;;;;;;;;4979704;28;20593;-36
2021/03/06 12:59:08;;;;;;;2.97;2.00;;;;;;;;;;4978299;28;20263;-38
2021/03/06 13:01:55;;;;;;;4.33;2.10;;;;;;;;;;4978745;28;20544;-38
2021/03/06 13:04:42;;;;;;;2.57;2.10;;;;;;;;;;4979154;28;20637;-36
2021/03/06 13:07:28;;;;;;;4.77;2.40;;;;;;;;;;4979536;28;20494;-38
2021/03/06 13:10:14;;;;;;;1.67;1.57;;;;;;;;;;4979596;28;20207;-36
2021/03/06 13:13:04;;;;;;;2.17;1.40;;;;;;;;;;4999449;28;20261;-36
2021/03/06 13:15:51;;;;;;;2.63;1.67;;;;;;;;;;5018345;28;20663;-39
2021/03/06 13:18:37;;;;;;;3.13;2.00;;;;;;;;;;5018062;28;20595;-35
2021/03/06 13:21:24;;;;;;;2.67;1.47;;;;;;;;;;5017824;28;20299;-39
2021/03/06 13:24:12;;;;;;;4.90;1.73;;;;;;;;;;5017389;28;20485;-34
2021/03/06 13:27:01;;;;;;;2.27;1.70;;;;;;;;;;5018184;28;20201;-40
2021/03/06 13:29:47;;;;;;;2.73;2.17;;;;;;;;;;5018212;28;20608;-37
2021/03/06 13:32:34;;;;;;;2.53;2.03;;;;;;;;;;5017682;28;20201;-38
2021/03/06 13:35:25;;;;;;;2.13;1.70;;;;;;;;;;5007063;28;20211;-42
2021/03/06 13:38:20;;;;;;;1.90;1.80;;;;;;;;;;4998892;28;20215;-39
2021/03/06 13:41:09;;;;;;;3.67;2.00;;;;;;;;;;4998534;28;20204;-39
2021/03/06 13:43:55;;;;;;;2.70;2.23;;;;;;;;;;5011803;28;20489;-37
2021/03/06 13:46:41;;;;;;;1.77;1.67;;;;;;;;;;5017384;28;20289;-41
2021/03/06 13:49:28;;;;;;;2.97;2.30;;;;;;;;;;4998103;28;20269;-37
2021/03/06 13:52:15;;;;;;;6.23;1.90;;;;;;;;;;4998049;28;20206;-37
2021/03/06 13:55:09;;;;;;;3.63;2.57;;;;;;;;;;5011480;28;20205;-40
2021/03/06 13:57:57;;;;;;;2.57;2.20;;;;;;;;;;5017518;28;20229;-40
2021/03/06 14:00:52;;;;;;;4.53;2.63;;;;;;;;;;5017052;28;20601;-38
2021/03/06 14:04:00;;;;;;;3.87;2.70;;;;;;;;;;5016917;28;20202;-39
2021/03/06 14:06:49;;;;;;;5.97;2.50;;;;;;;;;;5016095;28;20210;-34
2021/03/06 14:09:36;;;;;;;1.70;1.60;;;;;;;;;;5016382;28;20243;-40
2021/03/06 14:12:22;;;;;;;5.00;2.10;;;;;;;;;;5015834;28;20241;-36
2021/03/06 14:15:11;;;;;;;2.30;2.10;;;;;;;;;;5013827;28;20273;-41
2021/03/06 14:17:59;;;;;;;2.57;2.37;;;;;;;;;;4996157;28;20289;-37
2021/03/06 14:20:45;;;;;;;2.40;2.20;;;;;;;;;;4997360;28;20597;-36
2021/03/06 14:23:33;;;;;;;3.57;1.90;;;;;;;;;;4996689;28;20202;-38
2021/03/06 14:26:20;;;;;;;2.97;1.70;;;;;;;;;;4997027;28;20206;-36
2021/03/06 14:29:06;;;;;;;3.67;1.90;;;;;;;;;;4997288;28;20683;-39
2021/03/06 14:31:52;;;;;;;2.67;2.47;;;;;;;;;;4997156;28;20305;-35
2021/03/06 14:34:39;;;;;;;1.90;1.80;;;;;;;;;;4997031;28;20395;-37
2021/03/06 14:37:26;;;;;;;2.17;1.87;;;;;;;;;;4996789;28;20202;-37
2021/03/06 14:40:13;;;;;;;2.37;1.83;;;;;;;;;;4997344;28;20202;-36
2021/03/06 14:42:59;;;;;;;2.13;1.93;;;;;;;;;;4997256;28;20226;-40
2021/03/06 14:45:44;;;;;;;2.40;2.13;;;;;;;;;;4996692;28;20198;-38
2021/03/06 14:48:31;;;;;;;2.13;1.93;;;;;;;;;;4996551;28;20616;-41
2021/03/06 14:51:21;;;;;;;6.07;4.17;;;;;;;;;;4995868;28;20492;-39
2021/03/06 14:54:07;;;;;;;2.00;1.90;;;;;;;;;;4996149;28;20226;-39
2021/03/06 14:56:54;;;;;;;3.30;2.30;;;;;;;;;;4996177;28;20308;-40
2021/03/06 14:59:40;;;;;;;2.63;2.27;;;;;;;;;;4996470;28;20198;-36
2021/03/06 15:02:26;;;;;;;2.50;2.27;;;;;;;;;;4996450;28;20301;-37
2021/03/06 15:05:13;;;;;;;3.83;1.80;;;;;;;;;;4996167;28;20203;-38
2021/03/06 15:07:59;;;;;;;2.23;2.10;;;;;;;;;;4996276;28;20218;-38
2021/03/06 15:10:46;;;;;;;2.07;1.97;;;;;;;;;;4996721;28;20218;-36
2021/03/06 15:13:32;;;;;;;2.83;2.00;;;;;;;;;;4995858;28;20242;-39
2021/03/06 15:16:20;;;;;;;3.63;2.50;;;;;;;;;;4996428;28;20709;-34
2021/03/06 15:19:07;;;;;;;4.13;2.40;;;;;;;;;;4996901;28;20194;-38
2021/03/06 15:21:53;;;;;;;3.17;2.53;;;;;;;;;;4996763;28;20408;-38
2021/03/06 15:24:39;;;;;;;2.97;2.63;;;;;;;;;;4999496;28;20195;-36
2021/03/06 15:27:24;;;;;;;3.63;2.70;;;;;;;;;;5000495;28;20489;-36
2021/03/06 15:30:14;;;;;;;4.53;2.63;;;;;;;;;;5000083;28;20295;-36
2021/03/06 15:33:00;;;;;;;6.67;2.90;;;;;;;;;;4999579;28;20202;-37
2021/03/06 15:35:53;;;;;;;4.37;3.40;;;;;;;;;;5000067;28;20257;-38
2021/03/06 15:38:39;;;;;;;4.07;3.10;;;;;;;;;;4999822;28;20203;-38
2021/03/06 15:41:27;;;;;;;5.67;3.10;;;;;;;;;;4999209;28;20354;-36
2021/03/06 15:44:13;;;;;;;6.83;3.70;;;;;;;;;;4999438;28;20195;-39
2021/03/06 15:47:01;;;;;;;2.70;2.50;;;;;;;;;;4999786;28;20202;-37
2021/03/06 15:49:48;;;;;;;5.13;2.60;;;;;;;;;;4999594;28;20199;-40
2021/03/06 15:52:34;;;;;;;2.67;2.47;;;;;;;;;;4999624;28;20510;-41
2021/03/06 15:55:23;;;;;;;5.90;3.00;;;;;;;;;;4998675;28;20620;-36
2021/03/06 15:58:09;;;;;;;4.83;3.30;;;;;;;;;;5000086;28;20647;-38
2021/03/06 16:00:55;;;;;;;2.80;2.60;;;;;;;;;;4999826;28;20198;-36
2021/03/06 16:03:42;;;;;;;3.90;2.80;;;;;;;;;;4998995;28;20222;-37
2021/03/06 16:06:29;;;;;;;4.67;3.03;;;;;;;;;;4998829;28;20353;-39
2021/03/06 16:09:17;;;;;;;3.90;2.50;;;;;;;;;;4999409;28;20624;-38
2021/03/06 16:12:03;;;;;;;3.63;2.87;;;;;;;;;;5008921;28;20364;-38
2021/03/06 16:14:49;;;;;;;3.20;2.90;;;;;;;;;;5019528;28;20224;-38
2021/03/06 16:17:37;;;;;;;4.20;2.33;;;;;;;;;;5019319;28;20341;-38
2021/03/06 16:20:28;;;;;;;4.07;2.43;;;;;;;;;;5019377;28;20616;-40
2021/03/06 16:23:14;;;;;;;3.20;2.47;;;;;;;;;;5019136;28;20202;-40
2021/03/06 16:26:02;;;;;;;3.70;2.50;;;;;;;;;;5019301;28;20241;-39
2021/03/06 16:28:48;;;;;;;3.33;2.40;;;;;;;;;;5018713;28;20529;-40
2021/03/06 16:31:37;;;;;;;2.10;2.00;;;;;;;;;;5018925;28;20321;-36
2021/03/06 16:34:23;;;;;;;2.73;2.30;;;;;;;;;;5012138;28;20221;-39
2021/03/06 16:37:17;;;;;;;2.20;2.10;;;;;;;;;;4999664;28;20209;-37
2021/03/06 16:40:10;;;;;;;2.63;1.97;;;;;;;;;;5017483;28;20865;-36